sensor_id;sensor_type;location;lat;lon;timestamp;P1;durP1;ratioP1;P2;durP2;ratioP2
51836;SDS011;38941;53.254;6.600;2022-08-01T00:00:46;4.60;;;2.30;;
51836;SDS011;38941;53.254;6.600;2022-08-01T00:02:47;3.97;;;2.15;;
51836;SDS011;38941;53.254;6.600;2022-08-01T00:04:48;5.28;;;2.63;;
51836;SDS011;38941;53.254;6.600;2022-08-01T00:06:48;6.18;;;2.38;;
51836;SDS011;38941;53.254;6.600;2022-08-01T00:08:49;3.03;;;2.45;;
51836;SDS011;38941;53.254;6.600;2022-08-01T00:10:50;5.78;;;2.80;;
51836;SDS011;38941;53.254;6.600;2022-08-01T00:12:50;9.23;;;2.40;;
51836;SDS011;38941;53.254;6.600;2022-08-01T00:14:51;8.82;;;2.92;;
51836;SDS011;38941;53.254;6.600;2022-08-01T00:16:52;6.25;;;1.92;;
51836;SDS011;38941;53.254;6.600;2022-08-01T00:18:52;8.10;;;3.08;;
51836;SDS011;38941;53.254;6.600;2022-08-01T00:20:54;4.88;;;2.38;;
51836;SDS011;38941;53.254;6.600;2022-08-01T00:22:54;5.00;;;2.40;;
51836;SDS011;38941;53.254;6.600;2022-08-01T00:24:55;3.67;;;1.92;;
51836;SDS011;38941;53.254;6.600;2022-08-01T00:26:56;4.10;;;2.17;;
51836;SDS011;38941;53.254;6.600;2022-08-01T00:28:57;6.40;;;2.10;;
51836;SDS011;38941;53.254;6.600;2022-08-01T00:30:58;3.67;;;1.90;;
51836;SDS011;38941;53.254;6.600;2022-08-01T00:32:59;6.90;;;2.20;;
51836;SDS011;38941;53.254;6.600;2022-08-01T00:34:59;8.20;;;1.98;;
51836;SDS011;38941;53.254;6.600;2022-08-01T00:37:00;5.43;;;1.90;;
51836;SDS011;38941;53.254;6.600;2022-08-01T00:39:01;7.78;;;1.88;;
51836;SDS011;38941;53.254;6.600;2022-08-01T00:41:02;7.22;;;3.05;;
51836;SDS011;38941;53.254;6.600;2022-08-01T00:43:03;3.03;;;2.28;;
51836;SDS011;38941;53.254;6.600;2022-08-01T00:45:03;8.95;;;2.40;;
51836;SDS011;38941;53.254;6.600;2022-08-01T00:47:05;5.95;;;2.00;;
51836;SDS011;38941;53.254;6.600;2022-08-01T00:49:06;5.25;;;2.30;;
51836;SDS011;38941;53.254;6.600;2022-08-01T00:51:08;3.70;;;1.77;;
51836;SDS011;38941;53.254;6.600;2022-08-01T00:53:08;4.13;;;2.35;;
51836;SDS011;38941;53.254;6.600;2022-08-01T00:55:10;5.07;;;2.10;;
51836;SDS011;38941;53.254;6.600;2022-08-01T00:57:12;10.05;;;1.77;;
51836;SDS011;38941;53.254;6.600;2022-08-01T00:59:13;4.75;;;1.75;;
51836;SDS011;38941;53.254;6.600;2022-08-01T01:01:17;7.05;;;2.72;;
51836;SDS011;38941;53.254;6.600;2022-08-01T01:03:21;2.70;;;1.60;;
51836;SDS011;38941;53.254;6.600;2022-08-01T01:05:23;4.07;;;1.73;;
51836;SDS011;38941;53.254;6.600;2022-08-01T01:07:27;7.43;;;1.65;;
51836;SDS011;38941;53.254;6.600;2022-08-01T01:16:17;7.05;;;1.80;;
51836;SDS011;38941;53.254;6.600;2022-08-01T01:18:28;7.45;;;1.50;;
51836;SDS011;38941;53.254;6.600;2022-08-01T01:20:39;4.25;;;1.30;;
51836;SDS011;38941;53.254;6.600;2022-08-01T01:23:01;3.13;;;1.07;;
51836;SDS011;38941;53.254;6.600;2022-08-01T01:25:19;4.60;;;1.23;;
51836;SDS011;38941;53.254;6.600;2022-08-01T01:27:42;3.17;;;1.27;;
51836;SDS011;38941;53.254;6.600;2022-08-01T01:29:53;3.33;;;1.55;;
51836;SDS011;38941;53.254;6.600;2022-08-01T01:32:02;5.88;;;1.40;;
51836;SDS011;38941;53.254;6.600;2022-08-01T01:34:13;5.97;;;1.15;;
51836;SDS011;38941;53.254;6.600;2022-08-01T01:36:17;6.93;;;1.90;;
51836;SDS011;38941;53.254;6.600;2022-08-01T01:38:21;3.28;;;1.27;;
51836;SDS011;38941;53.254;6.600;2022-08-01T01:40:28;8.13;;;1.40;;
51836;SDS011;38941;53.254;6.600;2022-08-01T01:42:30;5.72;;;2.33;;
51836;SDS011;38941;53.254;6.600;2022-08-01T01:44:33;5.78;;;1.42;;
51836;SDS011;38941;53.254;6.600;2022-08-01T01:46:35;3.03;;;1.08;;
51836;SDS011;38941;53.254;6.600;2022-08-01T01:48:38;5.97;;;1.20;;
51836;SDS011;38941;53.254;6.600;2022-08-01T01:50:40;5.07;;;1.70;;
51836;SDS011;38941;53.254;6.600;2022-08-01T01:52:42;6.55;;;1.08;;
51836;SDS011;38941;53.254;6.600;2022-08-01T01:54:49;12.77;;;1.25;;
51836;SDS011;38941;53.254;6.600;2022-08-01T01:56:50;7.18;;;1.40;;
51836;SDS011;38941;53.254;6.600;2022-08-01T01:58:53;7.72;;;1.70;;
51836;SDS011;38941;53.254;6.600;2022-08-01T02:00:57;6.47;;;1.42;;
51836;SDS011;38941;53.254;6.600;2022-08-01T02:03:00;10.43;;;2.80;;
51836;SDS011;38941;53.254;6.600;2022-08-01T02:05:08;7.82;;;1.25;;
51836;SDS011;38941;53.254;6.600;2022-08-01T02:07:12;7.90;;;1.20;;
51836;SDS011;38941;53.254;6.600;2022-08-01T02:09:18;4.50;;;0.98;;
51836;SDS011;38941;53.254;6.600;2022-08-01T02:11:20;4.18;;;1.13;;
51836;SDS011;38941;53.254;6.600;2022-08-01T02:13:22;2.75;;;0.80;;
51836;SDS011;38941;53.254;6.600;2022-08-01T02:15:23;6.30;;;1.00;;
51836;SDS011;38941;53.254;6.600;2022-08-01T02:17:24;3.40;;;0.68;;
51836;SDS011;38941;53.254;6.600;2022-08-01T02:19:26;3.13;;;0.90;;
51836;SDS011;38941;53.254;6.600;2022-08-01T02:21:28;4.55;;;1.23;;
51836;SDS011;38941;53.254;6.600;2022-08-01T02:23:32;3.63;;;1.20;;
51836;SDS011;38941;53.254;6.600;2022-08-01T02:27:44;6.70;;;1.25;;
51836;SDS011;38941;53.254;6.600;2022-08-01T02:29:55;6.95;;;1.35;;
51836;SDS011;38941;53.254;6.600;2022-08-01T02:32:00;9.18;;;1.48;;
51836;SDS011;38941;53.254;6.600;2022-08-01T02:34:04;4.55;;;1.35;;
51836;SDS011;38941;53.254;6.600;2022-08-01T02:36:06;9.88;;;1.83;;
51836;SDS011;38941;53.254;6.600;2022-08-01T02:38:09;6.55;;;1.52;;
51836;SDS011;38941;53.254;6.600;2022-08-01T02:40:11;8.07;;;1.50;;
51836;SDS011;38941;53.254;6.600;2022-08-01T02:42:13;8.27;;;2.38;;
51836;SDS011;38941;53.254;6.600;2022-08-01T02:44:16;10.23;;;1.77;;
51836;SDS011;38941;53.254;6.600;2022-08-01T02:46:38;8.57;;;2.58;;
51836;SDS011;38941;53.254;6.600;2022-08-01T02:48:43;9.23;;;2.00;;
51836;SDS011;38941;53.254;6.600;2022-08-01T02:50:47;7.18;;;2.08;;
51836;SDS011;38941;53.254;6.600;2022-08-01T02:52:50;9.35;;;2.05;;
51836;SDS011;38941;53.254;6.600;2022-08-01T02:54:52;4.93;;;1.50;;
51836;SDS011;38941;53.254;6.600;2022-08-01T02:56:55;9.73;;;2.00;;
51836;SDS011;38941;53.254;6.600;2022-08-01T02:58:56;12.30;;;2.05;;
51836;SDS011;38941;53.254;6.600;2022-08-01T03:00:57;13.32;;;2.00;;
51836;SDS011;38941;53.254;6.600;2022-08-01T03:02:59;5.50;;;1.48;;
51836;SDS011;38941;53.254;6.600;2022-08-01T03:05:01;7.50;;;1.90;;
51836;SDS011;38941;53.254;6.600;2022-08-01T03:07:03;7.90;;;1.85;;
51836;SDS011;38941;53.254;6.600;2022-08-01T03:09:06;9.15;;;2.67;;
51836;SDS011;38941;53.254;6.600;2022-08-01T03:11:08;7.38;;;2.10;;
51836;SDS011;38941;53.254;6.600;2022-08-01T03:13:08;11.43;;;1.98;;
51836;SDS011;38941;53.254;6.600;2022-08-01T03:15:11;13.77;;;2.67;;
51836;SDS011;38941;53.254;6.600;2022-08-01T03:17:13;7.60;;;2.05;;
51836;SDS011;38941;53.254;6.600;2022-08-01T03:19:16;9.80;;;2.83;;
51836;SDS011;38941;53.254;6.600;2022-08-01T03:21:19;11.35;;;2.28;;
51836;SDS011;38941;53.254;6.600;2022-08-01T03:23:22;11.75;;;3.67;;
51836;SDS011;38941;53.254;6.600;2022-08-01T03:25:24;6.45;;;1.90;;
51836;SDS011;38941;53.254;6.600;2022-08-01T03:27:27;8.55;;;2.30;;
51836;SDS011;38941;53.254;6.600;2022-08-01T03:29:29;5.97;;;1.98;;
51836;SDS011;38941;53.254;6.600;2022-08-01T03:31:33;7.97;;;2.08;;
51836;SDS011;38941;53.254;6.600;2022-08-01T03:33:35;10.40;;;2.00;;
51836;SDS011;38941;53.254;6.600;2022-08-01T03:35:37;6.15;;;1.80;;
51836;SDS011;38941;53.254;6.600;2022-08-01T03:37:44;9.52;;;1.92;;
51836;SDS011;38941;53.254;6.600;2022-08-01T03:39:47;5.30;;;1.80;;
51836;SDS011;38941;53.254;6.600;2022-08-01T03:42:01;5.47;;;1.63;;
51836;SDS011;38941;53.254;6.600;2022-08-01T03:44:08;5.47;;;2.00;;
51836;SDS011;38941;53.254;6.600;2022-08-01T03:46:17;8.00;;;1.80;;
51836;SDS011;38941;53.254;6.600;2022-08-01T03:48:22;8.13;;;2.47;;
51836;SDS011;38941;53.254;6.600;2022-08-01T03:52:33;13.32;;;1.63;;
51836;SDS011;38941;53.254;6.600;2022-08-01T03:54:38;12.93;;;1.98;;
51836;SDS011;38941;53.254;6.600;2022-08-01T03:56:43;7.93;;;1.70;;
51836;SDS011;38941;53.254;6.600;2022-08-01T03:58:46;10.25;;;1.70;;
51836;SDS011;38941;53.254;6.600;2022-08-01T04:00:47;13.63;;;2.20;;
51836;SDS011;38941;53.254;6.600;2022-08-01T04:02:48;10.85;;;2.40;;
51836;SDS011;38941;53.254;6.600;2022-08-01T04:04:50;11.48;;;1.70;;
51836;SDS011;38941;53.254;6.600;2022-08-01T04:06:51;8.77;;;1.92;;
51836;SDS011;38941;53.254;6.600;2022-08-01T04:08:54;7.47;;;1.65;;
51836;SDS011;38941;53.254;6.600;2022-08-01T04:10:57;8.63;;;2.22;;
51836;SDS011;38941;53.254;6.600;2022-08-01T04:12:58;13.57;;;2.28;;
51836;SDS011;38941;53.254;6.600;2022-08-01T04:14:59;8.02;;;2.05;;
51836;SDS011;38941;53.254;6.600;2022-08-01T04:17:00;10.20;;;2.20;;
51836;SDS011;38941;53.254;6.600;2022-08-01T04:19:01;6.40;;;1.60;;
51836;SDS011;38941;53.254;6.600;2022-08-01T04:21:02;12.25;;;2.50;;
51836;SDS011;38941;53.254;6.600;2022-08-01T04:23:03;8.75;;;2.42;;
51836;SDS011;38941;53.254;6.600;2022-08-01T04:25:07;14.45;;;3.00;;
51836;SDS011;38941;53.254;6.600;2022-08-01T04:27:13;6.63;;;2.03;;
51836;SDS011;38941;53.254;6.600;2022-08-01T04:29:19;10.35;;;1.75;;
51836;SDS011;38941;53.254;6.600;2022-08-01T04:31:22;8.00;;;1.73;;
51836;SDS011;38941;53.254;6.600;2022-08-01T04:33:25;6.50;;;1.85;;
51836;SDS011;38941;53.254;6.600;2022-08-01T04:35:29;11.65;;;2.17;;
51836;SDS011;38941;53.254;6.600;2022-08-01T04:37:33;9.68;;;2.03;;
51836;SDS011;38941;53.254;6.600;2022-08-01T04:39:37;11.82;;;1.80;;
51836;SDS011;38941;53.254;6.600;2022-08-01T04:41:40;14.25;;;2.67;;
51836;SDS011;38941;53.254;6.600;2022-08-01T04:43:41;10.57;;;1.55;;
51836;SDS011;38941;53.254;6.600;2022-08-01T04:45:42;8.95;;;1.70;;
51836;SDS011;38941;53.254;6.600;2022-08-01T04:47:44;12.40;;;1.95;;
51836;SDS011;38941;53.254;6.600;2022-08-01T04:49:47;8.30;;;2.22;;
51836;SDS011;38941;53.254;6.600;2022-08-01T04:51:49;8.50;;;1.98;;
51836;SDS011;38941;53.254;6.600;2022-08-01T04:53:51;9.73;;;2.58;;
51836;SDS011;38941;53.254;6.600;2022-08-01T04:55:52;11.40;;;1.70;;
51836;SDS011;38941;53.254;6.600;2022-08-01T04:57:53;15.23;;;2.17;;
51836;SDS011;38941;53.254;6.600;2022-08-01T04:59:54;14.82;;;3.22;;
51836;SDS011;38941;53.254;6.600;2022-08-01T05:01:56;10.77;;;2.72;;
51836;SDS011;38941;53.254;6.600;2022-08-01T05:03:57;9.38;;;2.03;;
51836;SDS011;38941;53.254;6.600;2022-08-01T05:05:58;7.50;;;1.75;;
51836;SDS011;38941;53.254;6.600;2022-08-01T05:07:59;9.00;;;1.90;;
51836;SDS011;38941;53.254;6.600;2022-08-01T05:10:00;11.48;;;2.00;;
51836;SDS011;38941;53.254;6.600;2022-08-01T05:12:01;14.27;;;2.47;;
51836;SDS011;38941;53.254;6.600;2022-08-01T05:14:03;17.75;;;3.40;;
51836;SDS011;38941;53.254;6.600;2022-08-01T05:16:04;10.02;;;2.20;;
51836;SDS011;38941;53.254;6.600;2022-08-01T05:18:04;8.23;;;1.60;;
51836;SDS011;38941;53.254;6.600;2022-08-01T05:20:05;11.25;;;2.40;;
51836;SDS011;38941;53.254;6.600;2022-08-01T05:22:07;11.82;;;1.80;;
51836;SDS011;38941;53.254;6.600;2022-08-01T05:24:08;14.38;;;1.88;;
51836;SDS011;38941;53.254;6.600;2022-08-01T05:26:10;15.35;;;2.33;;
51836;SDS011;38941;53.254;6.600;2022-08-01T05:28:11;10.05;;;2.30;;
51836;SDS011;38941;53.254;6.600;2022-08-01T05:30:12;10.73;;;1.88;;
51836;SDS011;38941;53.254;6.600;2022-08-01T05:32:12;13.30;;;2.38;;
51836;SDS011;38941;53.254;6.600;2022-08-01T05:34:13;12.23;;;2.20;;
51836;SDS011;38941;53.254;6.600;2022-08-01T05:36:14;8.65;;;2.30;;
51836;SDS011;38941;53.254;6.600;2022-08-01T05:38:15;11.68;;;2.42;;
51836;SDS011;38941;53.254;6.600;2022-08-01T05:40:16;13.63;;;2.53;;
51836;SDS011;38941;53.254;6.600;2022-08-01T05:42:16;11.27;;;2.70;;
51836;SDS011;38941;53.254;6.600;2022-08-01T05:44:17;13.70;;;2.05;;
51836;SDS011;38941;53.254;6.600;2022-08-01T05:46:18;15.70;;;2.17;;
51836;SDS011;38941;53.254;6.600;2022-08-01T05:48:18;14.35;;;2.65;;
51836;SDS011;38941;53.254;6.600;2022-08-01T05:50:19;24.30;;;3.08;;
51836;SDS011;38941;53.254;6.600;2022-08-01T05:52:20;10.00;;;1.95;;
51836;SDS011;38941;53.254;6.600;2022-08-01T05:54:20;14.13;;;2.65;;
51836;SDS011;38941;53.254;6.600;2022-08-01T05:56:21;11.98;;;2.65;;
51836;SDS011;38941;53.254;6.600;2022-08-01T05:58:22;12.68;;;2.03;;
51836;SDS011;38941;53.254;6.600;2022-08-01T06:00:23;15.07;;;2.45;;
51836;SDS011;38941;53.254;6.600;2022-08-01T06:02:23;13.52;;;2.72;;
51836;SDS011;38941;53.254;6.600;2022-08-01T06:04:24;13.98;;;2.45;;
51836;SDS011;38941;53.254;6.600;2022-08-01T06:06:25;13.40;;;2.00;;
51836;SDS011;38941;53.254;6.600;2022-08-01T06:08:26;14.18;;;2.70;;
51836;SDS011;38941;53.254;6.600;2022-08-01T06:10:27;9.73;;;2.05;;
51836;SDS011;38941;53.254;6.600;2022-08-01T06:12:28;11.15;;;2.28;;
51836;SDS011;38941;53.254;6.600;2022-08-01T06:14:28;20.27;;;3.15;;
51836;SDS011;38941;53.254;6.600;2022-08-01T06:16:29;13.15;;;1.95;;
51836;SDS011;38941;53.254;6.600;2022-08-01T06:18:30;9.40;;;2.13;;
51836;SDS011;38941;53.254;6.600;2022-08-01T06:20:31;13.57;;;1.90;;
51836;SDS011;38941;53.254;6.600;2022-08-01T06:22:31;12.95;;;1.45;;
51836;SDS011;38941;53.254;6.600;2022-08-01T06:24:32;13.75;;;1.83;;
51836;SDS011;38941;53.254;6.600;2022-08-01T06:26:33;13.32;;;2.17;;
51836;SDS011;38941;53.254;6.600;2022-08-01T06:28:33;12.60;;;2.25;;
51836;SDS011;38941;53.254;6.600;2022-08-01T06:30:34;10.13;;;2.20;;
51836;SDS011;38941;53.254;6.600;2022-08-01T06:32:35;8.63;;;2.05;;
51836;SDS011;38941;53.254;6.600;2022-08-01T06:34:36;9.25;;;2.05;;
51836;SDS011;38941;53.254;6.600;2022-08-01T06:36:37;11.93;;;2.30;;
51836;SDS011;38941;53.254;6.600;2022-08-01T06:38:37;10.10;;;2.00;;
51836;SDS011;38941;53.254;6.600;2022-08-01T06:40:38;8.23;;;1.80;;
51836;SDS011;38941;53.254;6.600;2022-08-01T06:42:39;7.57;;;1.98;;
51836;SDS011;38941;53.254;6.600;2022-08-01T06:44:40;12.45;;;1.58;;
51836;SDS011;38941;53.254;6.600;2022-08-01T06:46:41;6.72;;;1.85;;
51836;SDS011;38941;53.254;6.600;2022-08-01T06:48:41;13.00;;;3.28;;
51836;SDS011;38941;53.254;6.600;2022-08-01T06:50:42;8.65;;;1.80;;
51836;SDS011;38941;53.254;6.600;2022-08-01T06:52:44;12.18;;;1.80;;
51836;SDS011;38941;53.254;6.600;2022-08-01T06:54:44;19.75;;;2.47;;
51836;SDS011;38941;53.254;6.600;2022-08-01T06:56:45;12.10;;;2.20;;
51836;SDS011;38941;53.254;6.600;2022-08-01T06:58:47;15.75;;;2.28;;
51836;SDS011;38941;53.254;6.600;2022-08-01T07:00:48;9.45;;;1.48;;
51836;SDS011;38941;53.254;6.600;2022-08-01T07:02:53;7.68;;;2.30;;
51836;SDS011;38941;53.254;6.600;2022-08-01T07:04:55;11.88;;;2.40;;
51836;SDS011;38941;53.254;6.600;2022-08-01T07:07:00;16.42;;;2.53;;
51836;SDS011;38941;53.254;6.600;2022-08-01T07:09:01;17.10;;;2.45;;
51836;SDS011;38941;53.254;6.600;2022-08-01T07:11:02;11.02;;;1.45;;
51836;SDS011;38941;53.254;6.600;2022-08-01T07:13:04;9.00;;;1.38;;
51836;SDS011;38941;53.254;6.600;2022-08-01T07:15:05;14.77;;;3.05;;
51836;SDS011;38941;53.254;6.600;2022-08-01T07:17:07;7.93;;;2.28;;
51836;SDS011;38941;53.254;6.600;2022-08-01T07:19:08;10.15;;;1.73;;
51836;SDS011;38941;53.254;6.600;2022-08-01T07:21:08;8.00;;;1.35;;
51836;SDS011;38941;53.254;6.600;2022-08-01T07:23:09;9.55;;;1.92;;
51836;SDS011;38941;53.254;6.600;2022-08-01T07:25:10;11.15;;;1.85;;
51836;SDS011;38941;53.254;6.600;2022-08-01T07:27:11;9.18;;;1.42;;
51836;SDS011;38941;53.254;6.600;2022-08-01T07:29:11;9.25;;;1.40;;
51836;SDS011;38941;53.254;6.600;2022-08-01T07:31:12;12.30;;;1.75;;
51836;SDS011;38941;53.254;6.600;2022-08-01T07:33:14;9.40;;;1.45;;
51836;SDS011;38941;53.254;6.600;2022-08-01T07:35:14;6.63;;;1.48;;
51836;SDS011;38941;53.254;6.600;2022-08-01T07:37:15;8.30;;;2.63;;
51836;SDS011;38941;53.254;6.600;2022-08-01T07:39:16;8.10;;;1.33;;
51836;SDS011;38941;53.254;6.600;2022-08-01T07:41:16;10.02;;;1.63;;
51836;SDS011;38941;53.254;6.600;2022-08-01T07:43:17;9.05;;;1.75;;
51836;SDS011;38941;53.254;6.600;2022-08-01T07:45:18;12.73;;;1.40;;
51836;SDS011;38941;53.254;6.600;2022-08-01T07:47:23;12.27;;;1.70;;
51836;SDS011;38941;53.254;6.600;2022-08-01T07:49:24;5.55;;;1.15;;
51836;SDS011;38941;53.254;6.600;2022-08-01T07:51:25;11.10;;;1.48;;
51836;SDS011;38941;53.254;6.600;2022-08-01T07:53:26;13.25;;;2.28;;
51836;SDS011;38941;53.254;6.600;2022-08-01T07:55:26;6.68;;;1.40;;
51836;SDS011;38941;53.254;6.600;2022-08-01T07:57:27;8.25;;;1.25;;
51836;SDS011;38941;53.254;6.600;2022-08-01T07:59:28;10.15;;;1.52;;
51836;SDS011;38941;53.254;6.600;2022-08-01T08:01:28;12.98;;;1.50;;
51836;SDS011;38941;53.254;6.600;2022-08-01T08:03:30;8.25;;;1.60;;
51836;SDS011;38941;53.254;6.600;2022-08-01T08:05:31;11.55;;;1.33;;
51836;SDS011;38941;53.254;6.600;2022-08-01T08:07:35;7.55;;;1.63;;
51836;SDS011;38941;53.254;6.600;2022-08-01T08:09:36;12.50;;;1.38;;
51836;SDS011;38941;53.254;6.600;2022-08-01T08:11:38;10.45;;;1.80;;
51836;SDS011;38941;53.254;6.600;2022-08-01T08:13:39;7.57;;;1.30;;
51836;SDS011;38941;53.254;6.600;2022-08-01T08:15:39;10.50;;;1.50;;
51836;SDS011;38941;53.254;6.600;2022-08-01T08:17:40;12.70;;;2.22;;
51836;SDS011;38941;53.254;6.600;2022-08-01T08:19:41;11.02;;;1.40;;
51836;SDS011;38941;53.254;6.600;2022-08-01T08:21:41;8.55;;;1.02;;
51836;SDS011;38941;53.254;6.600;2022-08-01T08:23:42;8.48;;;1.27;;
51836;SDS011;38941;53.254;6.600;2022-08-01T08:28:02;12.73;;;2.25;;
51836;SDS011;38941;53.254;6.600;2022-08-01T08:30:04;10.35;;;1.63;;
51836;SDS011;38941;53.254;6.600;2022-08-01T08:32:11;6.60;;;1.88;;
51836;SDS011;38941;53.254;6.600;2022-08-01T08:34:12;13.43;;;1.88;;
51836;SDS011;38941;53.254;6.600;2022-08-01T08:36:13;9.75;;;2.78;;
51836;SDS011;38941;53.254;6.600;2022-08-01T08:38:14;9.02;;;1.40;;
51836;SDS011;38941;53.254;6.600;2022-08-01T08:40:15;5.90;;;1.02;;
51836;SDS011;38941;53.254;6.600;2022-08-01T08:42:16;13.10;;;1.42;;
51836;SDS011;38941;53.254;6.600;2022-08-01T08:44:18;10.13;;;2.53;;
51836;SDS011;38941;53.254;6.600;2022-08-01T08:46:22;6.22;;;1.02;;
51836;SDS011;38941;53.254;6.600;2022-08-01T08:48:25;9.20;;;1.23;;
51836;SDS011;38941;53.254;6.600;2022-08-01T08:50:27;7.00;;;1.00;;
51836;SDS011;38941;53.254;6.600;2022-08-01T08:52:28;13.40;;;1.27;;
51836;SDS011;38941;53.254;6.600;2022-08-01T08:54:30;4.35;;;0.80;;
51836;SDS011;38941;53.254;6.600;2022-08-01T08:56:32;5.95;;;0.93;;
51836;SDS011;38941;53.254;6.600;2022-08-01T08:58:35;11.00;;;1.70;;
51836;SDS011;38941;53.254;6.600;2022-08-01T09:00:38;7.55;;;0.95;;
51836;SDS011;38941;53.254;6.600;2022-08-01T09:02:41;6.40;;;1.25;;
51836;SDS011;38941;53.254;6.600;2022-08-01T09:04:43;6.40;;;1.88;;
51836;SDS011;38941;53.254;6.600;2022-08-01T09:06:44;7.97;;;1.13;;
51836;SDS011;38941;53.254;6.600;2022-08-01T09:08:45;7.60;;;1.40;;
51836;SDS011;38941;53.254;6.600;2022-08-01T09:10:46;5.80;;;0.98;;
51836;SDS011;38941;53.254;6.600;2022-08-01T09:13:03;11.93;;;1.63;;
51836;SDS011;38941;53.254;6.600;2022-08-01T09:15:11;10.05;;;2.05;;
51836;SDS011;38941;53.254;6.600;2022-08-01T09:17:12;5.25;;;1.45;;
51836;SDS011;38941;53.254;6.600;2022-08-01T09:19:16;6.40;;;1.15;;
51836;SDS011;38941;53.254;6.600;2022-08-01T09:21:20;5.82;;;0.68;;
51836;SDS011;38941;53.254;6.600;2022-08-01T09:23:33;6.50;;;1.00;;
51836;SDS011;38941;53.254;6.600;2022-08-01T09:25:54;9.23;;;1.42;;
51836;SDS011;38941;53.254;6.600;2022-08-01T09:28:03;8.00;;;1.00;;
51836;SDS011;38941;53.254;6.600;2022-08-01T09:30:10;6.07;;;1.92;;
51836;SDS011;38941;53.254;6.600;2022-08-01T09:32:12;8.75;;;0.95;;
51836;SDS011;38941;53.254;6.600;2022-08-01T09:34:12;7.28;;;1.42;;
51836;SDS011;38941;53.254;6.600;2022-08-01T09:36:14;5.60;;;1.40;;
51836;SDS011;38941;53.254;6.600;2022-08-01T09:38:16;7.80;;;1.45;;
51836;SDS011;38941;53.254;6.600;2022-08-01T09:40:18;8.65;;;1.30;;
51836;SDS011;38941;53.254;6.600;2022-08-01T09:42:23;10.60;;;1.33;;
51836;SDS011;38941;53.254;6.600;2022-08-01T09:44:41;5.88;;;0.80;;
51836;SDS011;38941;53.254;6.600;2022-08-01T09:46:48;11.18;;;0.90;;
51836;SDS011;38941;53.254;6.600;2022-08-01T09:48:56;5.05;;;0.65;;
51836;SDS011;38941;53.254;6.600;2022-08-01T09:51:03;8.68;;;1.23;;
51836;SDS011;38941;53.254;6.600;2022-08-01T09:53:04;5.85;;;0.90;;
51836;SDS011;38941;53.254;6.600;2022-08-01T09:55:05;3.95;;;1.00;;
51836;SDS011;38941;53.254;6.600;2022-08-01T09:57:07;5.10;;;0.70;;
51836;SDS011;38941;53.254;6.600;2022-08-01T09:59:15;5.28;;;0.75;;
51836;SDS011;38941;53.254;6.600;2022-08-01T10:01:16;7.38;;;0.88;;
51836;SDS011;38941;53.254;6.600;2022-08-01T10:03:19;9.55;;;1.88;;
51836;SDS011;38941;53.254;6.600;2022-08-01T10:05:34;11.60;;;0.70;;
51836;SDS011;38941;53.254;6.600;2022-08-01T10:07:36;5.13;;;0.80;;
51836;SDS011;38941;53.254;6.600;2022-08-01T10:10:08;5.00;;;0.82;;
51836;SDS011;38941;53.254;6.600;2022-08-01T10:12:18;6.20;;;1.15;;
51836;SDS011;38941;53.254;6.600;2022-08-01T10:14:19;8.10;;;0.88;;
51836;SDS011;38941;53.254;6.600;2022-08-01T10:16:22;3.30;;;1.10;;
51836;SDS011;38941;53.254;6.600;2022-08-01T10:18:24;7.18;;;0.63;;
51836;SDS011;38941;53.254;6.600;2022-08-01T10:20:27;3.78;;;0.70;;
51836;SDS011;38941;53.254;6.600;2022-08-01T10:22:30;6.80;;;0.73;;
51836;SDS011;38941;53.254;6.600;2022-08-01T10:24:31;10.23;;;1.13;;
51836;SDS011;38941;53.254;6.600;2022-08-01T10:26:35;5.07;;;0.90;;
51836;SDS011;38941;53.254;6.600;2022-08-01T10:28:39;5.50;;;0.68;;
51836;SDS011;38941;53.254;6.600;2022-08-01T10:30:44;7.00;;;1.35;;
51836;SDS011;38941;53.254;6.600;2022-08-01T10:32:47;5.63;;;1.00;;
51836;SDS011;38941;53.254;6.600;2022-08-01T10:34:52;6.32;;;0.63;;
51836;SDS011;38941;53.254;6.600;2022-08-01T10:36:52;5.18;;;0.65;;
51836;SDS011;38941;53.254;6.600;2022-08-01T10:38:54;4.57;;;1.02;;
51836;SDS011;38941;53.254;6.600;2022-08-01T10:40:55;3.75;;;1.02;;
51836;SDS011;38941;53.254;6.600;2022-08-01T10:42:59;7.72;;;0.90;;
51836;SDS011;38941;53.254;6.600;2022-08-01T10:45:00;4.75;;;0.60;;
51836;SDS011;38941;53.254;6.600;2022-08-01T10:47:06;4.90;;;1.27;;
51836;SDS011;38941;53.254;6.600;2022-08-01T10:49:13;4.45;;;0.90;;
51836;SDS011;38941;53.254;6.600;2022-08-01T10:51:20;3.65;;;0.88;;
51836;SDS011;38941;53.254;6.600;2022-08-01T10:53:22;6.15;;;1.42;;
51836;SDS011;38941;53.254;6.600;2022-08-01T10:55:25;5.28;;;0.88;;
51836;SDS011;38941;53.254;6.600;2022-08-01T10:57:40;8.02;;;1.58;;
51836;SDS011;38941;53.254;6.600;2022-08-01T10:59:50;7.78;;;1.17;;
51836;SDS011;38941;53.254;6.600;2022-08-01T11:02:01;2.33;;;0.50;;
51836;SDS011;38941;53.254;6.600;2022-08-01T11:04:05;14.52;;;2.05;;
51836;SDS011;38941;53.254;6.600;2022-08-01T11:06:18;3.78;;;1.00;;
51836;SDS011;38941;53.254;6.600;2022-08-01T11:08:25;5.45;;;0.80;;
51836;SDS011;38941;53.254;6.600;2022-08-01T11:10:42;3.13;;;1.00;;
51836;SDS011;38941;53.254;6.600;2022-08-01T11:17:29;7.95;;;1.10;;
51836;SDS011;38941;53.254;6.600;2022-08-01T11:22:04;5.28;;;2.17;;
51836;SDS011;38941;53.254;6.600;2022-08-01T11:24:04;2.53;;;0.82;;
51836;SDS011;38941;53.254;6.600;2022-08-01T11:26:06;4.80;;;1.30;;
51836;SDS011;38941;53.254;6.600;2022-08-01T11:32:25;6.43;;;0.93;;
51836;SDS011;38941;53.254;6.600;2022-08-01T11:37:22;2.92;;;0.52;;
51836;SDS011;38941;53.254;6.600;2022-08-01T11:39:27;2.42;;;0.70;;
51836;SDS011;38941;53.254;6.600;2022-08-01T11:41:31;4.40;;;0.60;;
51836;SDS011;38941;53.254;6.600;2022-08-01T11:43:34;2.53;;;1.00;;
51836;SDS011;38941;53.254;6.600;2022-08-01T11:45:50;6.65;;;0.73;;
51836;SDS011;38941;53.254;6.600;2022-08-01T11:47:55;7.88;;;1.20;;
51836;SDS011;38941;53.254;6.600;2022-08-01T11:49:56;3.97;;;0.77;;
51836;SDS011;38941;53.254;6.600;2022-08-01T11:51:58;4.95;;;0.70;;
51836;SDS011;38941;53.254;6.600;2022-08-01T11:54:00;4.28;;;0.63;;
51836;SDS011;38941;53.254;6.600;2022-08-01T11:56:01;2.58;;;0.57;;
51836;SDS011;38941;53.254;6.600;2022-08-01T11:58:05;6.93;;;0.60;;
51836;SDS011;38941;53.254;6.600;2022-08-01T12:00:15;3.00;;;0.82;;
51836;SDS011;38941;53.254;6.600;2022-08-01T12:02:22;7.22;;;0.73;;
51836;SDS011;38941;53.254;6.600;2022-08-01T12:06:55;3.28;;;0.80;;
51836;SDS011;38941;53.254;6.600;2022-08-01T12:08:57;2.50;;;0.85;;
51836;SDS011;38941;53.254;6.600;2022-08-01T12:11:19;4.72;;;0.77;;
51836;SDS011;38941;53.254;6.600;2022-08-01T12:13:20;3.95;;;0.82;;
51836;SDS011;38941;53.254;6.600;2022-08-01T12:15:22;6.60;;;0.68;;
51836;SDS011;38941;53.254;6.600;2022-08-01T12:17:34;4.88;;;0.85;;
51836;SDS011;38941;53.254;6.600;2022-08-01T12:19:40;3.00;;;0.82;;
51836;SDS011;38941;53.254;6.600;2022-08-01T12:21:41;5.80;;;1.13;;
51836;SDS011;38941;53.254;6.600;2022-08-01T12:23:42;8.50;;;0.82;;
51836;SDS011;38941;53.254;6.600;2022-08-01T12:25:44;3.42;;;0.73;;
51836;SDS011;38941;53.254;6.600;2022-08-01T12:27:51;9.10;;;0.77;;
51836;SDS011;38941;53.254;6.600;2022-08-01T12:29:52;5.53;;;1.13;;
51836;SDS011;38941;53.254;6.600;2022-08-01T12:31:56;3.95;;;1.10;;
51836;SDS011;38941;53.254;6.600;2022-08-01T12:33:57;3.75;;;0.70;;
51836;SDS011;38941;53.254;6.600;2022-08-01T12:35:57;3.00;;;0.70;;
51836;SDS011;38941;53.254;6.600;2022-08-01T12:37:59;6.25;;;1.02;;
51836;SDS011;38941;53.254;6.600;2022-08-01T12:40:08;3.10;;;1.00;;
51836;SDS011;38941;53.254;6.600;2022-08-01T12:42:14;6.65;;;0.80;;
51836;SDS011;38941;53.254;6.600;2022-08-01T12:44:15;7.07;;;1.00;;
51836;SDS011;38941;53.254;6.600;2022-08-01T12:46:17;6.43;;;0.80;;
51836;SDS011;38941;53.254;6.600;2022-08-01T12:48:18;3.67;;;0.77;;